Time;durP1;ratioP1;P1;durP2;ratioP2;P2;SDS_P1;SDS_P2;PMS_P1;PMS_P2;Temp;Humidity;BMP_temperature;BMP_pressure;BME280_temperature;BME280_humidity;BME280_pressure;Samples;Min_cycle;Max_cycle;Signal;HPM_P1;HPM_P2
2023/12/01 00:02:26;;;;;;;11.00;10.25;;;-2.00;99.90;;;;;;4910703;29;20228;-83
2023/12/01 00:04:53;;;;;;;14.25;11.73;;;-1.90;99.90;;;;;;4938661;29;20201;-85
2023/12/01 00:07:20;;;;;;;15.52;10.05;;;-1.90;99.90;;;;;;4920274;29;20277;-86
2023/12/01 00:09:47;;;;;;;6.03;5.63;;;-1.80;99.90;;;;;;4913637;29;20206;-87
2023/12/01 00:12:14;;;;;;;9.90;8.80;;;-1.80;99.90;;;;;;4931054;29;20275;-88
2023/12/01 00:14:41;;;;;;;16.98;15.10;;;-1.80;99.90;;;;;;4916528;29;20205;-86
2023/12/01 00:17:08;;;;;;;8.63;8.02;;;-1.80;99.90;;;;;;4915235;29;20243;-83
2023/12/01 00:19:35;;;;;;;7.35;6.25;;;-1.70;99.90;;;;;;4918492;29;20206;-88
2023/12/01 00:22:02;;;;;;;13.25;11.32;;;-1.80;99.90;;;;;;4912562;29;20273;-89
2023/12/01 00:24:29;;;;;;;20.65;13.00;;;-1.70;99.90;;;;;;4921640;29;20209;-88
2023/12/01 00:26:56;;;;;;;10.95;7.88;;;-1.60;99.90;;;;;;4939554;29;20264;-89
2023/12/01 00:29:23;;;;;;;16.35;15.02;;;-1.50;99.90;;;;;;4955143;29;20208;-88
2023/12/01 00:31:50;;;;;;;11.63;10.57;;;-1.60;99.90;;;;;;4937502;29;20204;-90
2023/12/01 00:34:18;;;;;;;8.82;8.30;;;-1.60;99.90;;;;;;4961770;29;20240;-90
2023/12/01 00:36:46;;;;;;;11.65;10.68;;;-1.60;99.90;;;;;;4957678;29;20267;-89
2023/12/01 00:39:13;;;;;;;10.48;9.32;;;-1.60;99.90;;;;;;4953686;29;20295;-85
2023/12/01 00:41:40;;;;;;;14.40;13.10;;;-1.60;99.90;;;;;;4953742;28;20336;-86
2023/12/01 00:44:06;;;;;;;6.47;6.00;;;-1.70;99.90;;;;;;4950682;29;20227;-84
2023/12/01 00:46:34;;;;;;;13.77;10.15;;;-1.70;99.90;;;;;;4948022;29;20391;-82
2023/12/01 00:49:01;;;;;;;16.10;14.90;;;-1.70;99.90;;;;;;4948935;29;20224;-88
2023/12/01 00:51:28;;;;;;;12.63;11.50;;;-1.70;99.90;;;;;;4948130;29;20200;-87
2023/12/01 00:53:55;;;;;;;23.63;14.45;;;-1.80;99.90;;;;;;4930581;29;20223;-86
2023/12/01 00:56:22;;;;;;;21.00;14.05;;;-1.70;99.90;;;;;;4955929;29;20240;-87
2023/12/01 00:58:49;;;;;;;14.93;8.32;;;-1.70;99.90;;;;;;4953384;29;20267;-83
2023/12/01 01:01:17;;;;;;;15.27;14.00;;;-1.70;99.90;;;;;;4942256;29;20230;-85
2023/12/01 01:06:12;;;;;;;7.00;6.47;;;-1.60;99.90;;;;;;4959950;28;20188;-85
2023/12/01 01:08:39;;;;;;;9.65;8.82;;;-1.60;99.90;;;;;;4964494;28;20259;-90
2023/12/01 01:11:06;;;;;;;12.35;10.70;;;-1.60;99.90;;;;;;5249086;23;20265;-88
2023/12/01 01:18:57;;;;;;;7.30;6.72;;;-1.90;99.90;;;;;;5749067;23;20257;-86
2023/12/01 01:23:59;;;;;;;11.30;10.35;;;-2.10;99.90;;;;;;5076567;23;20218;-78
2023/12/01 01:26:26;;;;;;;11.45;10.57;;;-2.20;99.90;;;;;;5458860;23;20300;-80
2023/12/01 01:28:53;;;;;;;7.20;6.60;;;-2.30;99.90;;;;;;5419675;23;20228;-79
2023/12/01 01:31:20;;;;;;;23.58;14.75;;;-2.50;99.90;;;;;;4984554;28;20266;-86
2023/12/01 01:33:47;;;;;;;25.95;14.02;;;-2.60;99.90;;;;;;4972762;28;20211;-85
2023/12/01 01:36:15;;;;;;;9.13;8.55;;;-2.60;99.90;;;;;;4972773;28;20199;-87
2023/12/01 01:38:42;;;;;;;8.43;7.75;;;-2.70;99.90;;;;;;4975868;28;20286;-88
2023/12/01 01:41:09;;;;;;;11.43;10.43;;;-2.70;99.90;;;;;;4972311;28;20206;-88
2023/12/01 01:43:36;;;;;;;10.63;9.63;;;-2.80;99.90;;;;;;4969149;28;20230;-88
2023/12/01 01:46:09;;;;;;;12.07;9.35;;;-2.80;99.90;;;;;;4975649;28;20199;-85
2023/12/01 01:48:38;;;;;;;13.02;11.93;;;-3.00;99.90;;;;;;4959006;28;20223;-87
2023/12/01 01:51:08;;;;;;;17.58;10.65;;;-2.90;99.90;;;;;;4973167;28;20214;-85
2023/12/01 01:53:42;;;;;;;13.32;12.35;;;-2.90;99.90;;;;;;4976141;28;20211;-87
2023/12/01 01:56:14;;;;;;;14.23;12.98;;;-2.90;99.90;;;;;;4988348;28;20197;-81
2023/12/01 01:58:42;;;;;;;10.63;10.02;;;-2.90;99.90;;;;;;4955529;28;20219;-87
2023/12/01 02:01:09;;;;;;;15.02;9.25;;;-3.10;99.90;;;;;;4983716;28;20454;-87
2023/12/01 02:03:38;;;;;;;11.38;9.40;;;-3.20;99.90;;;;;;4981685;28;20211;-88
2023/12/01 02:06:08;;;;;;;7.82;7.22;;;-3.30;99.90;;;;;;4986272;28;20207;-83
2023/12/01 02:08:35;;;;;;;5.63;5.30;;;-3.30;99.90;;;;;;5137523;23;20458;-88
2023/12/01 02:11:03;;;;;;;9.20;8.30;;;-3.30;99.90;;;;;;4998011;28;20423;-84
2023/12/01 02:13:30;;;;;;;12.32;10.80;;;-3.30;99.90;;;;;;4987644;28;20207;-88
2023/12/01 02:15:59;;;;;;;9.07;8.38;;;-3.40;99.90;;;;;;5000663;28;20186;-81
2023/12/01 02:23:37;;;;;;;9.27;8.65;;;-3.30;99.90;;;;;;4969908;29;20199;-78
2023/12/01 02:26:04;;;;;;;14.32;13.15;;;-3.10;99.90;;;;;;4965372;28;20181;-80
2023/12/01 02:31:10;;;;;;;13.45;12.38;;;-3.00;99.90;;;;;;5029726;23;20211;-88
2023/12/01 02:33:38;;;;;;;19.15;13.63;;;-3.00;99.90;;;;;;5091553;23;20223;-79
2023/12/01 02:36:11;;;;;;;11.18;10.43;;;-3.10;99.90;;;;;;4998537;28;20246;-81
2023/12/01 02:38:38;;;;;;;13.18;12.05;;;-3.10;99.90;;;;;;5455954;23;20241;-87
2023/12/01 02:41:05;;;;;;;27.02;14.43;;;-3.00;99.90;;;;;;5015095;28;20214;-85
2023/12/01 02:43:32;;;;;;;9.40;8.82;;;-3.00;99.90;;;;;;5010750;28;20209;-88
2023/12/01 02:45:59;;;;;;;34.03;13.55;;;-3.00;99.90;;;;;;5007835;28;20203;-86
2023/12/01 02:50:55;;;;;;;11.80;10.63;;;-2.70;99.90;;;;;;5052701;23;20289;-85
2023/12/01 02:53:23;;;;;;;43.65;19.13;;;-2.60;99.90;;;;;;5186532;23;20258;-85
2023/12/01 02:55:50;;;;;;;14.75;13.50;;;-2.60;99.90;;;;;;5293309;23;20223;-80
2023/12/01 02:58:17;;;;;;;14.73;11.35;;;-2.60;99.90;;;;;;4999726;28;20226;-81
2023/12/01 03:00:44;;;;;;;11.27;10.30;;;-2.60;99.90;;;;;;4999899;28;20255;-82
2023/12/01 03:03:11;;;;;;;14.32;12.90;;;-2.50;99.90;;;;;;4987165;28;20195;-79
2023/12/01 03:05:38;;;;;;;14.45;13.27;;;-2.40;99.90;;;;;;5001404;28;20223;-80
2023/12/01 03:08:05;;;;;;;13.02;11.70;;;-2.40;99.90;;;;;;4999820;28;20198;-81
2023/12/01 03:10:33;;;;;;;17.67;12.07;;;-2.30;99.90;;;;;;5007367;28;20282;-79
2023/12/01 03:13:01;;;;;;;8.38;7.80;;;-2.40;99.90;;;;;;5069815;23;20219;-78
2023/12/01 03:15:29;;;;;;;12.35;11.27;;;-2.40;99.90;;;;;;5019131;28;20194;-81
2023/12/01 03:17:56;;;;;;;17.10;14.00;;;-2.40;99.90;;;;;;5019046;28;20274;-80
2023/12/01 03:20:23;;;;;;;10.45;9.75;;;-2.50;99.90;;;;;;5019148;28;20194;-78
2023/12/01 03:22:50;;;;;;;34.45;9.55;;;-2.50;99.90;;;;;;5022428;28;20210;-83
2023/12/01 03:25:17;;;;;;;8.48;7.80;;;-2.60;99.90;;;;;;5018006;28;20262;-80
2023/12/01 03:27:46;;;;;;;12.05;11.05;;;-2.60;99.90;;;;;;5017651;28;20187;-82
2023/12/01 03:30:16;;;;;;;12.60;11.50;;;-2.70;99.90;;;;;;5031909;28;20229;-83
2023/12/01 03:32:47;;;;;;;8.48;7.90;;;-2.60;99.90;;;;;;5067770;23;20232;-82
2023/12/01 03:35:16;;;;;;;12.32;11.43;;;-2.50;99.90;;;;;;4988341;28;20194;-85
2023/12/01 03:37:44;;;;;;;23.80;16.33;;;-2.50;99.90;;;;;;4985377;28;20240;-85
2023/12/01 03:40:12;;;;;;;13.70;12.70;;;-2.40;99.90;;;;;;4985494;28;20206;-82
2023/12/01 03:42:45;;;;;;;28.23;12.38;;;-2.40;99.90;;;;;;4992177;28;20273;-82
2023/12/01 03:45:13;;;;;;;15.05;13.63;;;-2.30;99.90;;;;;;4986579;28;20253;-83
2023/12/01 03:47:42;;;;;;;13.27;12.00;;;-2.20;99.90;;;;;;4993150;28;20215;-85
2023/12/01 03:50:13;;;;;;;13.73;12.32;;;-2.10;99.90;;;;;;4997691;28;20265;-86
2023/12/01 03:52:41;;;;;;;12.75;11.48;;;-2.20;99.90;;;;;;4985345;28;20203;-85
2023/12/01 03:55:09;;;;;;;18.05;14.50;;;-2.20;99.90;;;;;;4997179;28;20209;-84
2023/12/01 03:57:38;;;;;;;8.00;7.30;;;-2.20;99.90;;;;;;4960619;28;20231;-86
2023/12/01 04:00:13;;;;;;;16.52;14.98;;;-2.20;99.90;;;;;;4972152;28;20210;-85
2023/12/01 04:02:41;;;;;;;14.63;13.10;;;-2.20;99.90;;;;;;4983287;28;20273;-83
2023/12/01 04:05:21;;;;;;;8.80;8.13;;;-2.10;99.90;;;;;;4980026;28;20207;-84
2023/12/01 04:07:53;;;;;;;17.10;15.30;;;-2.10;99.90;;;;;;4984796;28;20277;-84
2023/12/01 04:10:27;;;;;;;10.07;9.02;;;-2.10;99.90;;;;;;4973589;28;20399;-85
2023/12/01 04:12:55;;;;;;;22.92;16.23;;;-2.10;99.90;;;;;;4981751;28;20210;-86
2023/12/01 04:15:25;;;;;;;14.40;13.10;;;-2.00;99.90;;;;;;4980270;28;20214;-87
2023/12/01 04:17:53;;;;;;;13.45;11.20;;;-2.00;99.90;;;;;;4982779;28;20773;-86
2023/12/01 04:20:29;;;;;;;13.15;11.38;;;-2.00;99.90;;;;;;4978802;28;20211;-83
2023/12/01 04:22:58;;;;;;;23.45;14.35;;;-1.90;99.90;;;;;;4967399;28;20431;-85
2023/12/01 04:25:27;;;;;;;20.50;18.40;;;-1.90;99.90;;;;;;4984695;28;20265;-83
2023/12/01 04:27:56;;;;;;;9.60;8.63;;;-1.80;99.90;;;;;;4982725;28;20214;-83
2023/12/01 04:30:24;;;;;;;17.67;15.88;;;-1.80;99.90;;;;;;5000951;28;20213;-81
2023/12/01 04:32:53;;;;;;;6.25;5.70;;;-1.90;99.90;;;;;;5005703;28;20217;-82
2023/12/01 04:35:26;;;;;;;16.95;15.40;;;-1.90;99.90;;;;;;4997428;28;20205;-82
2023/12/01 04:37:53;;;;;;;14.35;12.93;;;-1.90;99.90;;;;;;4991736;28;20214;-85
2023/12/01 04:40:21;;;;;;;13.40;11.75;;;-2.00;99.90;;;;;;4992702;28;20217;-86
2023/12/01 04:42:50;;;;;;;8.13;7.63;;;-2.00;99.90;;;;;;4984265;28;20285;-87
2023/12/01 04:45:19;;;;;;;13.27;12.32;;;-2.00;99.90;;;;;;4982328;28;20207;-82
2023/12/01 04:47:50;;;;;;;13.05;11.75;;;-2.10;99.90;;;;;;4985623;28;20515;-84
2023/12/01 04:50:26;;;;;;;13.45;8.07;;;-2.10;99.90;;;;;;4982322;28;20207;-81
2023/12/01 04:52:54;;;;;;;12.85;11.65;;;-2.10;99.90;;;;;;4982085;28;20214;-81
2023/12/01 04:55:26;;;;;;;14.55;12.40;;;-2.10;99.90;;;;;;4966654;28;20243;-80
2023/12/01 04:57:54;;;;;;;27.15;13.40;;;-2.20;99.90;;;;;;4988155;28;20269;-82
2023/12/01 05:00:25;;;;;;;17.40;15.63;;;-2.20;99.90;;;;;;4987623;28;20206;-83
2023/12/01 05:02:58;;;;;;;14.25;12.77;;;-2.30;99.90;;;;;;4992369;28;20205;-83
2023/12/01 05:05:27;;;;;;;8.27;7.63;;;-2.40;99.90;;;;;;4989691;28;20202;-84
2023/12/01 05:07:57;;;;;;;9.63;7.57;;;-2.30;99.90;;;;;;4985383;28;20209;-84
2023/12/01 05:10:27;;;;;;;10.93;10.15;;;-2.30;99.90;;;;;;4993876;28;20202;-83
2023/12/01 05:12:56;;;;;;;8.85;8.20;;;-2.30;99.90;;;;;;4983993;28;20253;-85
2023/12/01 05:15:25;;;;;;;25.67;14.68;;;-2.30;99.90;;;;;;4988196;28;20221;-88
2023/12/01 05:17:54;;;;;;;15.63;14.00;;;-2.30;99.90;;;;;;4991851;28;20269;-87
2023/12/01 05:20:25;;;;;;;18.05;12.32;;;-2.30;99.90;;;;;;4984572;28;20452;-86
2023/12/01 05:22:53;;;;;;;24.45;14.07;;;-2.30;99.90;;;;;;4994141;28;20206;-88
2023/12/01 05:25:21;;;;;;;14.68;13.75;;;-2.30;99.90;;;;;;4993397;28;20274;-84
2023/12/01 05:27:50;;;;;;;9.38;8.57;;;-2.30;99.90;;;;;;4987548;28;20499;-85
2023/12/01 05:30:19;;;;;;;18.13;16.02;;;-2.30;99.90;;;;;;4990566;28;20202;-85
2023/12/01 05:32:48;;;;;;;9.25;8.52;;;-2.40;99.90;;;;;;4974143;28;20207;-83
2023/12/01 05:35:16;;;;;;;13.48;11.43;;;-2.50;99.90;;;;;;4995251;28;20206;-85
2023/12/01 05:37:54;;;;;;;14.27;12.82;;;-2.50;99.90;;;;;;4997434;28;20222;-85
2023/12/01 05:40:25;;;;;;;18.05;11.73;;;-2.50;99.90;;;;;;5136908;23;20221;-80
2023/12/01 05:42:54;;;;;;;15.75;14.20;;;-2.50;99.90;;;;;;5021065;28;20234;-84
2023/12/01 05:45:22;;;;;;;11.85;10.75;;;-2.60;99.90;;;;;;5004024;28;20265;-83
2023/12/01 05:47:52;;;;;;;13.77;12.85;;;-2.50;99.90;;;;;;5022849;28;20240;-82
2023/12/01 05:50:29;;;;;;;13.73;12.60;;;-2.50;99.90;;;;;;5027963;28;20205;-84
2023/12/01 05:53:03;;;;;;;14.23;12.88;;;-2.40;99.90;;;;;;5021665;28;20259;-84
2023/12/01 05:55:33;;;;;;;8.45;7.97;;;-2.40;99.90;;;;;;5007379;28;20202;-87
2023/12/01 05:58:04;;;;;;;14.63;13.60;;;-2.50;99.90;;;;;;5014979;28;20257;-86
2023/12/01 06:00:31;;;;;;;27.33;14.93;;;-2.50;99.90;;;;;;5001214;28;20209;-82
2023/12/01 06:03:02;;;;;;;29.20;9.38;;;-2.50;99.90;;;;;;5017908;28;20243;-83
2023/12/01 06:05:31;;;;;;;15.38;14.02;;;-2.40;99.90;;;;;;5004516;28;20276;-81
2023/12/01 06:07:59;;;;;;;15.85;14.82;;;-2.50;99.90;;;;;;5020779;28;20221;-84
2023/12/01 06:10:28;;;;;;;12.98;11.93;;;-2.50;99.90;;;;;;5030579;28;20201;-84
2023/12/01 06:12:56;;;;;;;16.05;14.77;;;-2.40;99.90;;;;;;5000704;28;20286;-84
2023/12/01 06:15:29;;;;;;;13.30;12.20;;;-2.50;99.90;;;;;;5031539;28;20216;-83
2023/12/01 06:17:57;;;;;;;16.50;15.07;;;-2.40;99.90;;;;;;5024029;28;20245;-86
2023/12/01 06:20:26;;;;;;;15.52;12.55;;;-2.40;99.90;;;;;;5014691;28;20229;-83
2023/12/01 06:22:57;;;;;;;8.57;7.97;;;-2.40;99.90;;;;;;5019212;28;20489;-82
2023/12/01 06:25:28;;;;;;;14.30;13.10;;;-2.40;99.90;;;;;;5031917;28;20291;-83
2023/12/01 06:27:57;;;;;;;12.40;11.38;;;-2.40;99.90;;;;;;5009628;28;20425;-83
2023/12/01 06:30:28;;;;;;;21.08;15.57;;;-2.50;99.90;;;;;;5019817;28;20209;-84
2023/12/01 06:32:55;;;;;;;12.10;11.23;;;-2.40;99.90;;;;;;5021511;28;20216;-83
2023/12/01 06:35:23;;;;;;;12.20;11.40;;;-2.40;99.90;;;;;;5037913;28;20200;-83
2023/12/01 06:37:50;;;;;;;14.10;10.02;;;-2.50;99.90;;;;;;5005573;28;20268;-82
2023/12/01 06:40:20;;;;;;;12.98;11.88;;;-2.40;99.90;;;;;;5009168;28;20213;-80
2023/12/01 06:42:56;;;;;;;8.43;7.88;;;-2.30;99.90;;;;;;5016762;28;20211;-82
2023/12/01 06:45:28;;;;;;;9.60;9.00;;;-2.40;99.90;;;;;;5031355;28;20208;-82
2023/12/01 06:47:59;;;;;;;16.92;15.82;;;-2.40;99.90;;;;;;5039993;28;20201;-82
2023/12/01 06:50:28;;;;;;;7.75;7.05;;;-2.40;99.90;;;;;;5003355;28;20206;-82
2023/12/01 06:53:00;;;;;;;14.13;13.00;;;-2.30;99.90;;;;;;5015852;28;20202;-80
2023/12/01 06:55:27;;;;;;;12.43;11.43;;;-2.30;99.90;;;;;;5018952;28;20237;-80
2023/12/01 06:57:55;;;;;;;15.82;12.98;;;-2.20;99.90;;;;;;5051073;28;20199;-83
2023/12/01 07:02:57;;;;;;;13.15;8.25;;;-2.10;99.90;;;;;;5036189;28;20196;-82
2023/12/01 07:05:26;;;;;;;15.35;13.95;;;-2.10;99.90;;;;;;5025425;28;20198;-83
2023/12/01 07:07:54;;;;;;;11.55;10.38;;;-1.90;99.90;;;;;;5017662;28;20604;-81
2023/12/01 07:10:21;;;;;;;14.82;10.95;;;-2.00;99.90;;;;;;5008726;28;20259;-83
2023/12/01 07:12:49;;;;;;;8.50;8.10;;;-1.90;99.90;;;;;;5017581;28;20206;-83
2023/12/01 07:15:20;;;;;;;12.80;11.00;;;-2.00;99.90;;;;;;5032020;28;20202;-84
2023/12/01 07:17:55;;;;;;;13.43;9.13;;;-1.90;99.90;;;;;;5023486;28;20257;-83
2023/12/01 07:20:23;;;;;;;13.02;11.73;;;-1.80;99.90;;;;;;5006536;28;20280;-82
2023/12/01 07:22:51;;;;;;;15.73;11.65;;;-1.80;99.90;;;;;;5032059;28;20393;-83
2023/12/01 07:25:23;;;;;;;10.73;9.55;;;-1.60;99.90;;;;;;5027467;28;20391;-82
2023/12/01 07:28:02;;;;;;;15.73;14.27;;;-1.60;99.90;;;;;;5027010;28;20221;-81
2023/12/01 07:30:30;;;;;;;11.30;10.57;;;-1.60;99.90;;;;;;5040628;28;20213;-81
2023/12/01 07:32:59;;;;;;;10.43;9.52;;;-1.50;99.90;;;;;;5038065;28;20521;-83
2023/12/01 07:35:27;;;;;;;16.70;8.07;;;-1.40;99.90;;;;;;5013082;28;20212;-82
2023/12/01 07:37:54;;;;;;;10.50;9.80;;;-1.30;99.90;;;;;;5033613;28;20205;-81
2023/12/01 07:40:23;;;;;;;13.10;11.98;;;-1.30;99.90;;;;;;5016887;28;20296;-82
2023/12/01 07:42:54;;;;;;;15.48;14.32;;;-1.50;99.90;;;;;;5017693;28;20216;-83
2023/12/01 07:45:22;;;;;;;14.82;12.73;;;-1.40;99.90;;;;;;5030077;28;20212;-83
2023/12/01 07:47:52;;;;;;;10.90;10.00;;;-1.30;99.90;;;;;;5027023;28;20202;-80
2023/12/01 07:50:20;;;;;;;10.02;9.25;;;-1.00;99.90;;;;;;5017044;28;20198;-81
2023/12/01 07:52:48;;;;;;;11.85;11.10;;;-0.90;99.90;;;;;;5029227;28;20371;-82
2023/12/01 07:55:21;;;;;;;9.90;9.40;;;-1.10;99.90;;;;;;5024214;28;20466;-80
2023/12/01 07:57:49;;;;;;;13.68;12.48;;;-1.00;99.90;;;;;;5005621;28;20264;-81
2023/12/01 08:00:16;;;;;;;19.25;17.33;;;-1.00;99.90;;;;;;5026827;28;20292;-80
2023/12/01 08:02:47;;;;;;;13.73;12.55;;;-0.90;99.90;;;;;;5014240;28;20276;-82
2023/12/01 08:05:15;;;;;;;31.58;14.25;;;-0.90;99.90;;;;;;5002085;28;20225;-80
2023/12/01 08:07:52;;;;;;;18.48;16.70;;;-0.90;99.90;;;;;;5038809;28;20201;-80
2023/12/01 08:10:22;;;;;;;10.40;9.80;;;-0.80;99.90;;;;;;5027679;28;20525;-80
2023/12/01 08:12:56;;;;;;;16.23;12.02;;;-0.80;99.90;;;;;;5028187;28;20486;-83
2023/12/01 08:15:26;;;;;;;14.00;12.63;;;-0.70;99.90;;;;;;5020988;28;20243;-81
2023/12/01 08:17:56;;;;;;;17.02;15.35;;;-0.70;99.90;;;;;;5039412;28;20194;-83
2023/12/01 08:20:24;;;;;;;11.75;10.80;;;-0.60;99.90;;;;;;5027398;28;20229;-81
2023/12/01 08:22:51;;;;;;;11.23;10.50;;;-0.50;99.90;;;;;;5022479;28;20206;-81
2023/12/01 08:25:21;;;;;;;18.20;11.48;;;-0.70;99.90;;;;;;5005472;28;20228;-81
2023/12/01 08:27:51;;;;;;;23.88;10.40;;;-0.50;99.90;;;;;;5022069;28;20201;-82
2023/12/01 08:30:19;;;;;;;9.45;7.22;;;-0.60;99.90;;;;;;5007582;28;20216;-81
2023/12/01 08:32:49;;;;;;;10.52;9.88;;;-0.80;99.90;;;;;;4991633;28;20240;-82
2023/12/01 08:35:18;;;;;;;6.20;5.80;;;-0.80;99.90;;;;;;5011469;28;20271;-81
2023/12/01 08:37:45;;;;;;;12.68;11.45;;;-0.70;99.90;;;;;;5030461;28;20494;-81
2023/12/01 08:40:12;;;;;;;18.27;14.30;;;-0.60;99.90;;;;;;5026766;28;20252;-82
2023/12/01 08:42:41;;;;;;;8.00;7.35;;;-0.60;99.90;;;;;;5018994;28;20198;-82
2023/12/01 08:45:10;;;;;;;7.25;6.95;;;-0.50;99.90;;;;;;5033070;28;20374;-83
2023/12/01 08:47:39;;;;;;;47.28;16.23;;;-0.40;99.90;;;;;;5000827;28;20278;-84
2023/12/01 08:50:07;;;;;;;13.45;10.90;;;-0.30;99.90;;;;;;5021425;28;20277;-81
2023/12/01 08:52:37;;;;;;;11.35;10.52;;;-0.30;99.90;;;;;;4999592;28;20213;-83
2023/12/01 08:55:05;;;;;;;12.35;10.25;;;-0.40;99.90;;;;;;5025242;28;20229;-84
2023/12/01 08:57:33;;;;;;;11.68;9.18;;;-0.50;99.90;;;;;;5027780;28;20284;-82
2023/12/01 09:00:00;;;;;;;16.02;14.45;;;-0.50;99.90;;;;;;5030904;28;20225;-83
2023/12/01 09:02:27;;;;;;;13.27;12.07;;;-0.30;99.90;;;;;;5022675;28;20548;-82
2023/12/01 09:04:54;;;;;;;17.63;11.93;;;-0.20;99.90;;;;;;5027116;28;20267;-81
2023/12/01 09:07:21;;;;;;;10.68;9.80;;;-0.10;99.90;;;;;;5030499;28;20250;-81
2023/12/01 09:09:55;;;;;;;9.15;8.45;;;-0.10;99.90;;;;;;5025648;28;20252;-81
2023/12/01 09:12:22;;;;;;;11.10;10.43;;;-0.10;99.90;;;;;;5016818;28;20237;-84
2023/12/01 09:14:50;;;;;;;9.75;9.05;;;-0.20;99.90;;;;;;5020665;28;20205;-80
2023/12/01 09:17:17;;;;;;;11.10;10.18;;;-0.20;99.90;;;;;;5011825;28;20213;-80
2023/12/01 09:19:44;;;;;;;9.98;9.02;;;0.10;99.90;;;;;;5011762;28;20273;-81
2023/12/01 09:22:11;;;;;;;14.82;13.50;;;0.10;99.90;;;;;;5037291;28;20193;-80
2023/12/01 09:24:38;;;;;;;9.45;8.82;;;0.20;99.90;;;;;;5014245;28;20206;-83
2023/12/01 09:27:05;;;;;;;14.15;12.98;;;0.30;99.90;;;;;;5011429;28;20210;-81
2023/12/01 09:29:32;;;;;;;12.32;11.43;;;0.40;99.90;;;;;;5040479;28;20622;-80
2023/12/01 09:32:01;;;;;;;10.18;9.38;;;0.50;99.90;;;;;;5037593;28;20208;-80
2023/12/01 09:34:28;;;;;;;11.35;10.55;;;0.60;99.90;;;;;;5025152;28;20198;-80
2023/12/01 09:36:55;;;;;;;11.15;10.13;;;0.70;99.90;;;;;;5019070;28;20202;-82
2023/12/01 09:39:23;;;;;;;10.32;9.73;;;0.70;99.90;;;;;;5029971;28;20341;-84
2023/12/01 09:41:51;;;;;;;14.23;12.93;;;0.60;99.90;;;;;;5024905;28;20209;-84
2023/12/01 09:44:18;;;;;;;17.42;13.85;;;0.60;99.90;;;;;;4996981;28;20205;-82
2023/12/01 09:46:48;;;;;;;12.07;10.98;;;0.30;99.90;;;;;;5004182;28;20449;-85
2023/12/01 09:49:16;;;;;;;15.48;14.48;;;0.20;99.90;;;;;;5013450;28;20214;-84
2023/12/01 09:51:43;;;;;;;12.52;11.73;;;0.10;99.90;;;;;;5012464;28;20233;-83
2023/12/01 09:54:10;;;;;;;12.98;12.07;;;0.10;99.90;;;;;;5013986;28;20217;-83
2023/12/01 09:56:37;;;;;;;14.50;12.68;;;0.10;99.90;;;;;;5021663;28;20232;-84
2023/12/01 09:59:05;;;;;;;13.02;12.00;;;0.40;99.90;;;;;;4997676;28;20225;-84
2023/12/01 10:01:33;;;;;;;12.35;11.13;;;0.40;99.90;;;;;;5027142;28;20204;-84
2023/12/01 10:04:00;;;;;;;9.30;8.27;;;0.30;99.90;;;;;;5010264;28;20199;-85
2023/12/01 10:06:28;;;;;;;7.13;6.43;;;0.30;99.90;;;;;;5027982;28;20196;-85
2023/12/01 10:08:55;;;;;;;8.85;8.00;;;0.40;99.90;;;;;;5022529;28;20202;-87
2023/12/01 10:11:24;;;;;;;38.08;14.90;;;0.70;99.90;;;;;;5012170;28;20198;-84
2023/12/01 10:13:52;;;;;;;25.73;19.77;;;0.70;99.90;;;;;;5010682;28;20194;-87
2023/12/01 10:16:20;;;;;;;9.68;8.95;;;0.70;99.90;;;;;;5018650;28;20209;-87
2023/12/01 10:19:04;;;;;;;17.88;14.57;;;0.70;99.90;;;;;;5027122;28;20266;-85
2023/12/01 10:21:41;;;;;;;9.30;8.45;;;0.80;99.90;;;;;;5023814;28;20226;-84
2023/12/01 10:24:22;;;;;;;11.75;10.23;;;0.60;99.90;;;;;;5011979;28;20198;-82
2023/12/01 10:26:53;;;;;;;7.43;6.80;;;0.70;99.90;;;;;;4992718;28;20206;-83
2023/12/01 10:29:32;;;;;;;12.85;10.68;;;0.70;99.90;;;;;;5006015;28;20218;-83
2023/12/01 10:32:12;;;;;;;8.27;7.47;;;0.80;99.90;;;;;;5027976;28;20202;-85
2023/12/01 10:34:40;;;;;;;12.32;11.48;;;0.80;99.90;;;;;;5017915;28;20556;-86
2023/12/01 10:37:08;;;;;;;26.13;13.88;;;0.90;99.90;;;;;;5012846;28;20202;-81
2023/12/01 10:39:37;;;;;;;16.40;14.80;;;0.80;99.90;;;;;;4991377;28;20380;-85
2023/12/01 10:42:09;;;;;;;15.40;14.02;;;0.80;99.90;;;;;;5034440;28;20236;-83
2023/12/01 10:44:38;;;;;;;20.33;18.45;;;0.70;99.90;;;;;;5004524;28;20204;-84
2023/12/01 10:47:06;;;;;;;16.10;14.85;;;0.70;99.90;;;;;;5027493;28;20209;-83
2023/12/01 10:49:35;;;;;;;17.35;14.43;;;0.60;99.90;;;;;;5030860;28;20271;-85
2023/12/01 10:52:03;;;;;;;12.02;10.90;;;0.70;99.90;;;;;;5011216;28;20486;-84
2023/12/01 10:54:31;;;;;;;9.77;9.20;;;0.60;99.90;;;;;;5000472;28;20211;-86
2023/12/01 10:57:28;;;;;;;13.23;11.93;;;0.50;99.90;;;;;;5016051;28;20229;-86
2023/12/01 11:00:00;;;;;;;18.92;17.23;;;0.50;99.90;;;;;;5014342;28;20464;-85
2023/12/01 11:02:31;;;;;;;11.98;10.38;;;0.40;99.90;;;;;;5011785;28;20189;-84
2023/12/01 11:04:59;;;;;;;14.88;13.80;;;0.50;99.90;;;;;;5020722;28;20368;-86
2023/12/01 11:07:27;;;;;;;17.17;15.80;;;0.40;99.90;;;;;;5006172;28;20269;-86
2023/12/01 11:10:36;;;;;;;15.60;14.43;;;0.30;99.90;;;;;;5033712;28;20275;-86
2023/12/01 11:13:27;;;;;;;13.82;12.95;;;0.30;99.90;;;;;;4978636;28;20276;-86
2023/12/01 11:15:55;;;;;;;28.33;18.90;;;0.40;99.90;;;;;;5020405;28;20216;-88
2023/12/01 11:18:22;;;;;;;17.80;16.10;;;0.40;99.90;;;;;;5015524;28;20276;-86
2023/12/01 11:29:08;;;;;;;20.33;18.38;;;0.20;99.90;;;;;;5350806;23;20234;-84
2023/12/01 11:31:49;;;;;;;11.30;10.43;;;0.30;99.90;;;;;;4991057;28;20183;-84
2023/12/01 11:34:19;;;;;;;17.73;8.57;;;0.20;99.90;;;;;;5009775;28;20221;-85
2023/12/01 11:47:48;;;;;;;14.15;12.95;;;0.10;99.90;;;;;;5210791;23;20418;-87
2023/12/01 11:52:51;;;;;;;17.52;9.88;;;0.10;99.90;;;;;;5956050;23;20418;-88
2023/12/01 13:19:06;;;;;;;13.45;7.53;;;0.50;99.90;;;;;;5470815;23;20327;-87
2023/12/01 13:21:35;;;;;;;15.38;8.75;;;0.60;99.90;;;;;;4993256;28;20234;-90
2023/12/01 13:24:03;;;;;;;9.48;8.65;;;0.60;99.90;;;;;;5453795;23;20254;-83
2023/12/01 13:26:32;;;;;;;11.40;8.27;;;0.50;99.90;;;;;;4970670;28;20205;-85
2023/12/01 13:31:34;;;;;;;5.93;5.38;;;0.40;99.90;;;;;;5399194;23;20244;-88
2023/12/01 13:53:00;;;;;;;14.70;13.18;;;0.20;99.90;;;;;;5754425;23;20297;-89
2023/12/01 13:55:29;;;;;;;18.10;16.35;;;0.30;99.90;;;;;;4990528;28;20230;-90
2023/12/01 13:57:56;;;;;;;13.55;12.30;;;0.10;99.90;;;;;;4982742;28;20211;-89
2023/12/01 14:00:23;;;;;;;18.83;17.23;;;0.20;99.90;;;;;;4992093;28;20218;-88
2023/12/01 14:02:51;;;;;;;20.77;18.88;;;0.20;99.90;;;;;;4966610;28;20201;-89
2023/12/01 14:05:18;;;;;;;10.20;9.48;;;0.20;99.90;;;;;;4994984;28;20202;-87
2023/12/01 14:07:49;;;;;;;10.88;10.07;;;0.20;99.90;;;;;;5008289;28;20229;-90
2023/12/01 14:10:18;;;;;;;12.98;8.43;;;0.20;99.90;;;;;;5289699;23;20234;-88
2023/12/01 14:12:45;;;;;;;6.47;5.97;;;0.20;99.90;;;;;;5015758;28;20254;-87
2023/12/01 14:15:12;;;;;;;8.80;7.65;;;0.10;99.90;;;;;;5003260;28;20201;-86
2023/12/01 14:17:48;;;;;;;6.40;6.05;;;0.10;99.90;;;;;;5000956;28;20210;-89
2023/12/01 14:20:15;;;;;;;7.20;6.55;;;0.10;99.90;;;;;;4999267;28;20229;-88
2023/12/01 14:22:43;;;;;;;7.95;7.40;;;0.20;99.90;;;;;;5005288;28;20241;-88
2023/12/01 14:25:10;;;;;;;8.93;8.27;;;0.10;99.90;;;;;;5005878;28;20225;-86
2023/12/01 14:27:37;;;;;;;7.30;6.63;;;0.10;99.90;;;;;;4993078;28;20419;-87
2023/12/01 14:30:06;;;;;;;8.70;7.95;;;0.10;99.90;;;;;;5023298;28;20213;-87
2023/12/01 14:32:33;;;;;;;6.85;6.25;;;0.10;99.90;;;;;;5011822;28;20206;-89
2023/12/01 14:40:24;;;;;;;10.52;9.70;;;0.00;99.90;;;;;;5793622;23;20225;-86
2023/12/01 14:42:51;;;;;;;10.65;9.95;;;0.00;99.90;;;;;;5345688;23;20249;-85
2023/12/01 14:45:19;;;;;;;5.93;4.72;;;0.00;99.90;;;;;;4980465;28;20283;-89
2023/12/01 14:47:47;;;;;;;7.05;6.53;;;0.10;99.90;;;;;;5148576;23;20273;-87
2023/12/01 14:50:16;;;;;;;8.70;8.00;;;0.00;99.90;;;;;;5502609;23;20242;-83
2023/12/01 14:55:19;;;;;;;15.73;10.10;;;0.00;99.90;;;;;;5204545;23;20260;-88
2023/12/01 14:57:46;;;;;;;12.25;10.90;;;0.10;99.90;;;;;;4986953;28;20210;-88
2023/12/01 15:00:14;;;;;;;8.02;7.53;;;0.10;99.90;;;;;;5128949;23;20465;-87
2023/12/01 15:02:41;;;;;;;9.25;8.60;;;-0.10;99.90;;;;;;5081878;23;20234;-86
2023/12/01 15:15:50;;;;;;;5.70;5.35;;;0.00;99.90;;;;;;5341033;23;20246;-91
2023/12/01 15:20:59;;;;;;;4.13;3.88;;;-0.10;99.90;;;;;;5879292;23;20180;-90
2023/12/01 15:26:01;;;;;;;10.13;4.88;;;-0.20;99.90;;;;;;5035405;23;20474;-86
2023/12/01 15:28:29;;;;;;;4.13;3.72;;;-0.30;99.90;;;;;;5003360;28;20214;-86
2023/12/01 15:30:56;;;;;;;5.78;5.20;;;-0.30;99.90;;;;;;5040413;23;20247;-85
2023/12/01 15:33:24;;;;;;;16.65;8.73;;;-0.30;99.90;;;;;;5057026;23;20246;-88
2023/12/01 15:35:51;;;;;;;3.78;3.47;;;-0.30;99.90;;;;;;4981935;28;20188;-88
2023/12/01 15:40:55;;;;;;;3.83;3.40;;;-0.20;99.90;;;;;;5186951;23;20312;-89
2023/12/01 15:43:22;;;;;;;10.85;7.30;;;-0.40;99.90;;;;;;5253046;23;20308;-88